| Date | Time | Temp. (oF) | Dew Point (oF) | Rel. Hum. (%) | Press. (in.) | Wind Dir. | Wind Speed (mph) | Hourly Rainfall (in.) |
|
|---|---|---|---|---|---|---|---|---|---|
| 1 | 01/18 | 00:00 | 53 | 46 | 80 | 29.64 | W | 7 | 0.00 |
| 2 | 01/17 | 23:00 | 51 | 47 | 88 | 29.63 | NNW | 3 | 0.00 |
| 3 | 01/17 | 22:00 | 53 | 47 | 82 | 29.63 | SW | 9 | 0.00 |
| 4 | 01/17 | 21:00 | 52 | 46 | 80 | 29.64 | SW | 7 | 0.00 |
| 5 | 01/17 | 20:00 | 52 | 46 | 80 | 29.64 | SSW | 10 | 0.00 |
| 6 | 01/17 | 19:00 | 52 | 46 | 83 | 29.63 | SW | 9 | 0.00 |
| 7 | 01/17 | 18:00 | 51 | 46 | 84 | 29.65 | SSW | 5 | 0.00 |
| 8 | 01/17 | 17:00 | 52 | 46 | 82 | 29.67 | SW | 4 | 0.00 |
| 9 | 01/17 | 16:00 | 52 | 46 | 81 | 29.68 | SSW | 9 | 0.00 |
| 10 | 01/17 | 15:00 | 48 | 46 | 95 | 29.70 | SSW | 9 | 0.00 |
| 11 | 01/17 | 14:00 | 43 | 42 | 100 | 29.75 | S | 5 | 0.02 |
| 12 | 01/17 | 13:00 | 42 | 41 | 100 | 29.80 | S | 5 | 0.00 |
| 13 | 01/17 | 12:00 | 41 | 41 | 100 | 29.85 | SSW | 7 | 0.01 |
| 14 | 01/17 | 11:00 | 39 | 39 | 100 | 29.90 | S | 3 | 0.09 |
| 15 | 01/17 | 10:00 | 38 | 37 | 100 | 29.96 | S | 4 | 0.05 |
| 16 | 01/17 | 09:00 | 38 | 37 | 97 | 29.97 | SSW | 5 | 0.00 |
| 17 | 01/17 | 08:00 | 36 | 36 | 100 | 29.97 | ESE | 1 | 0.00 |
| 18 | 01/17 | 07:00 | 35 | 35 | 100 | 30.00 | SSE | 2 | 0.00 |
| 19 | 01/17 | 06:00 | 35 | 35 | 100 | 30.01 | ENE | 1 | 0.00 |
| 20 | 01/17 | 05:00 | 35 | 35 | 100 | 30.03 | S | 2 | 0.00 |
| 21 | 01/17 | 04:00 | 36 | 35 | 98 | 30.05 | SSW | 0 | 0.00 |
| 22 | 01/17 | 03:00 | 36 | 35 | 97 | 30.06 | SSW | 4 | 0.00 |
| 23 | 01/17 | 02:00 | 35 | 34 | 98 | 30.09 | SSW | 4 | 0.00 |
| 24 | 01/17 | 01:00 | 34 | 33 | 97 | 30.12 | S | 2 | 0.01 |